Time;durP1;ratioP1;P1;durP2;ratioP2;P2;SDS_P1;SDS_P2;PMS_P1;PMS_P2;Temp;Humidity;BMP_temperature;BMP_pressure;BME280_temperature;BME280_humidity;BME280_pressure;Samples;Min_cycle;Max_cycle;Signal;HPM_P1;HPM_P2
2024/04/07 00:00:30;;;;;;;46.80;33.70;;;;;;;11.02;95.10;100974.38;105641;1263;99161;-81
2024/04/07 00:03:35;;;;;;;48.50;33.40;;;;;;;11.01;94.89;100976.38;105809;1267;97977;-81
2024/04/07 00:06:21;;;;;;;48.90;33.30;;;;;;;11.00;95.00;100979.13;105647;1263;97876;-82
2024/04/07 00:09:06;;;;;;;43.30;31.00;;;;;;;11.00;95.35;100980.88;105750;1263;97994;-82
2024/04/07 00:11:52;;;;;;;37.60;29.40;;;;;;;10.99;95.48;100978.29;105726;1264;102485;-81
2024/04/07 00:14:38;;;;;;;49.10;30.50;;;;;;;10.97;95.70;100979.95;105762;1264;99191;-81
2024/04/07 00:17:24;;;;;;;41.90;30.20;;;;;;;10.93;95.79;100982.46;105551;1270;99046;-80
2024/04/07 00:20:11;;;;;;;42.40;29.50;;;;;;;10.87;95.68;100980.60;105664;1264;96402;-80
2024/04/07 00:22:57;;;;;;;47.50;30.50;;;;;;;10.85;95.56;100981.16;105959;1267;97775;-81
2024/04/07 00:25:42;;;;;;;44.10;30.50;;;;;;;10.86;96.01;100979.69;105748;1263;101354;-81
2024/04/07 00:28:28;;;;;;;41.90;27.90;;;;;;;10.87;96.10;100981.21;105719;1263;99669;-81
2024/04/07 00:31:14;;;;;;;40.60;27.30;;;;;;;10.86;96.18;100981.08;105563;1267;98510;-82
2024/04/07 00:34:00;;;;;;;36.80;25.40;;;;;;;10.85;95.82;100980.73;105690;1267;97925;-82
2024/04/07 00:36:46;;;;;;;36.50;25.00;;;;;;;10.84;95.80;100981.03;105656;1264;97972;-81
2024/04/07 00:39:32;;;;;;;34.20;23.80;;;;;;;10.82;96.04;100978.49;105660;1269;102623;-81
2024/04/07 00:42:17;;;;;;;34.90;24.70;;;;;;;10.81;96.12;100974.34;105927;1264;99257;-81
2024/04/07 00:45:03;;;;;;;37.50;24.40;;;;;;;10.79;96.38;100972.66;105703;1265;97978;-82
2024/04/07 00:47:48;;;;;;;35.10;22.90;;;;;;;10.78;96.53;100976.85;105722;1267;97981;-82
2024/04/07 00:50:35;;;;;;;37.10;24.70;;;;;;;10.76;96.95;100982.99;105791;1263;97966;-81
2024/04/07 00:53:21;;;;;;;37.00;24.80;;;;;;;10.75;96.94;100985.42;105791;1264;102191;-82
2024/04/07 00:56:07;;;;;;;36.60;25.80;;;;;;;10.74;96.96;100983.58;105545;1263;101110;-82
2024/04/07 00:58:53;;;;;;;43.80;27.50;;;;;;;10.71;96.95;100981.95;105593;1267;98029;-81
2024/04/07 01:01:38;;;;;;;39.60;25.60;;;;;;;10.68;96.90;100979.76;105532;1267;98046;-82
2024/04/07 01:04:24;;;;;;;33.70;23.80;;;;;;;10.65;96.75;100973.52;105617;1267;97915;-82
2024/04/07 01:07:10;;;;;;;42.60;25.80;;;;;;;10.63;96.93;100976.69;105534;1269;102638;-81
2024/04/07 01:09:56;;;;;;;57.10;27.20;;;;;;;10.62;97.14;100979.51;105713;1267;99234;-80
2024/04/07 01:12:54;;;;;;;60.50;30.30;;;;;;;10.61;97.53;100980.29;105872;1263;99346;-81
2024/04/07 01:15:39;;;;;;;64.10;30.60;;;;;;;10.59;97.59;100988.50;105542;1267;97964;-82
2024/04/07 01:18:25;;;;;;;51.50;27.80;;;;;;;10.59;97.46;100990.38;105617;1266;98459;-81
2024/04/07 01:21:10;;;;;;;49.60;26.50;;;;;;;10.59;97.62;100988.08;105549;1264;101824;-82
2024/04/07 01:23:56;;;;;;;41.90;26.60;;;;;;;10.59;97.57;100988.73;105613;1263;108605;-80
2024/04/07 01:26:42;;;;;;;38.10;25.00;;;;;;;10.58;97.49;100989.66;105784;1264;99300;-81
2024/04/07 01:29:27;;;;;;;39.60;24.40;;;;;;;10.55;97.49;100990.34;105619;1267;99506;-82
2024/04/07 01:32:12;;;;;;;39.20;24.10;;;;;;;10.53;97.48;100994.96;105623;1263;98492;-81
2024/04/07 01:34:58;;;;;;;42.00;26.30;;;;;;;10.53;97.68;100996.98;105586;1267;101424;-82
2024/04/07 01:37:44;;;;;;;43.40;24.80;;;;;;;10.52;97.67;101000.39;105609;1264;100183;-82
2024/04/07 01:40:31;;;;;;;36.20;24.30;;;;;;;10.51;97.86;100993.08;105634;1267;98989;-82
2024/04/07 01:43:17;;;;;;;34.10;25.50;;;;;;;10.49;97.56;100988.73;105604;1264;98865;-82
2024/04/07 01:46:04;;;;;;;35.80;24.30;;;;;;;10.44;97.63;100995.29;105694;1263;97904;-81
2024/04/07 01:48:49;;;;;;;35.20;24.60;;;;;;;10.39;97.71;100999.10;105916;1267;102004;-80
2024/04/07 01:51:35;;;;;;;37.70;25.20;;;;;;;10.36;97.75;100997.09;105801;1263;100406;-82
2024/04/07 01:54:20;;;;;;;36.80;25.60;;;;;;;10.35;97.87;100998.48;105816;1264;98434;-82
2024/04/07 01:57:06;;;;;;;33.10;23.20;;;;;;;10.34;98.00;101000.80;105473;1266;97847;-82
2024/04/07 01:59:52;;;;;;;41.30;24.80;;;;;;;10.32;97.96;100995.09;105642;1263;98036;-81
2024/04/07 02:02:37;;;;;;;35.40;24.30;;;;;;;10.33;98.10;100991.63;105540;1263;103153;-81
2024/04/07 02:05:23;;;;;;;31.10;23.60;;;;;;;10.33;98.32;100992.05;105564;1264;99150;-81
2024/04/07 02:08:08;;;;;;;33.70;22.40;;;;;;;10.32;98.55;100993.19;105568;1263;98092;-82
2024/04/07 02:10:54;;;;;;;36.00;23.60;;;;;;;10.33;98.84;100983.98;105709;1264;98043;-81
2024/04/07 02:13:39;;;;;;;35.10;23.50;;;;;;;10.31;98.81;100975.42;105604;1264;98909;-81
2024/04/07 02:16:24;;;;;;;33.20;23.50;;;;;;;10.28;98.75;100977.05;105591;1264;102527;-82
2024/04/07 02:19:13;;;;;;;37.10;22.80;;;;;;;10.27;98.97;100973.06;105700;1263;99270;-80
2024/04/07 02:21:58;;;;;;;36.50;22.60;;;;;;;10.28;99.50;100967.16;105752;1263;99002;-81
2024/04/07 02:24:44;;;;;;;33.40;23.00;;;;;;;10.29;99.68;100965.45;105595;1264;97947;-82
2024/04/07 02:27:30;;;;;;;32.70;22.70;;;;;;;10.27;99.26;100967.04;105600;1264;97903;-82
2024/04/07 02:30:16;;;;;;;33.60;21.90;;;;;;;10.24;99.46;100968.80;105632;1264;101349;-82
2024/04/07 02:33:03;;;;;;;33.60;24.10;;;;;;;10.23;99.92;100962.98;105790;1264;100300;-82
2024/04/07 02:35:49;;;;;;;36.80;24.50;;;;;;;10.21;99.89;100959.77;105508;1264;99008;-82
2024/04/07 02:38:35;;;;;;;38.00;25.60;;;;;;;10.18;99.58;100966.55;105651;1267;97956;-82
2024/04/07 02:41:20;;;;;;;39.10;25.10;;;;;;;10.17;99.46;100962.65;105556;1268;99126;-82
2024/04/07 02:44:06;;;;;;;35.20;24.50;;;;;;;10.17;99.80;100963.89;105466;1269;102067;-82
2024/04/07 02:49:56;;;;;;;39.90;25.40;;;;;;;10.17;100.00;100970.44;105472;1264;99128;-82
2024/04/07 02:52:42;;;;;;;34.20;24.30;;;;;;;10.16;100.00;100969.48;105497;1267;98030;-82
2024/04/07 02:55:27;;;;;;;36.50;25.60;;;;;;;10.15;100.00;100975.48;105469;1264;99809;-82
2024/04/07 02:58:12;;;;;;;34.50;23.60;;;;;;;10.13;100.00;100975.75;105592;1263;200906;-83
2024/04/07 03:01:05;;;;;;;34.00;23.50;;;;;;;10.11;100.00;100969.55;105613;1265;109022;-81
2024/04/07 03:03:51;;;;;;;28.80;22.00;;;;;;;10.08;100.00;100975.28;105502;1263;98021;-82
2024/04/07 03:06:36;;;;;;;29.80;20.70;;;;;;;10.06;100.00;100985.74;105538;1267;97981;-83
2024/04/07 03:09:21;;;;;;;31.00;21.50;;;;;;;10.05;100.00;100990.17;105472;1264;99650;-82
2024/04/07 03:12:07;;;;;;;31.80;21.50;;;;;;;10.04;100.00;100987.06;105520;1263;101349;-81
2024/04/07 03:14:53;;;;;;;28.60;19.70;;;;;;;10.03;100.00;100980.70;105513;1263;99111;-82
2024/04/07 03:17:39;;;;;;;29.80;20.70;;;;;;;10.02;100.00;100982.45;105414;1263;98093;-81
2024/04/07 03:20:26;;;;;;;29.60;21.60;;;;;;;10.00;100.00;100988.70;105349;1263;98073;-82
2024/04/07 03:23:11;;;;;;;30.20;22.50;;;;;;;10.00;100.00;100983.96;105487;1263;98449;-81
2024/04/07 03:25:57;;;;;;;37.70;23.30;;;;;;;9.99;100.00;100980.39;105429;1267;102682;-81
2024/04/07 03:28:43;;;;;;;31.90;22.60;;;;;;;9.97;100.00;100985.68;105604;1264;99401;-82
2024/04/07 03:31:28;;;;;;;33.10;23.50;;;;;;;9.97;100.00;100991.04;105539;1264;98286;-80
2024/04/07 03:34:14;;;;;;;30.30;22.20;;;;;;;9.98;100.00;100990.06;105555;1263;97961;-82
2024/04/07 03:36:59;;;;;;;28.40;20.80;;;;;;;9.98;100.00;100985.41;105615;1265;97997;-81
2024/04/07 03:39:45;;;;;;;28.40;20.90;;;;;;;9.98;100.00;100981.39;105569;1267;102732;-81
2024/04/07 03:42:30;;;;;;;27.70;20.80;;;;;;;9.96;100.00;100982.09;105647;1267;99197;-81
2024/04/07 03:45:17;;;;;;;28.90;20.20;;;;;;;9.95;100.00;100985.92;105547;1264;98805;-82
2024/04/07 03:48:03;;;;;;;31.10;19.00;;;;;;;9.94;100.00;100979.77;105674;1263;97983;-81
2024/04/07 03:50:48;;;;;;;26.80;20.00;;;;;;;9.94;100.00;100989.85;105589;1268;98443;-80
2024/04/07 03:53:34;;;;;;;25.20;18.40;;;;;;;9.93;100.00;100993.36;105564;1264;102052;-80
2024/04/07 03:56:19;;;;;;;27.20;19.20;;;;;;;9.91;100.00;100989.38;105619;1267;100834;-82
2024/04/07 03:59:04;;;;;;;30.00;19.60;;;;;;;9.91;100.00;100992.83;105598;1263;97963;-82
2024/04/07 04:01:50;;;;;;;25.10;19.10;;;;;;;9.89;100.00;100997.86;105620;1264;98691;-82
2024/04/07 04:04:38;;;;;;;27.50;19.80;;;;;;;9.88;100.00;101001.58;105614;1263;98536;-80
2024/04/07 04:07:28;;;;;;;28.90;21.90;;;;;;;9.86;100.00;101009.23;105482;1264;102039;-81
2024/04/07 04:10:13;;;;;;;25.90;20.00;;;;;;;9.84;100.00;101007.33;105819;1264;99854;-83
2024/04/07 04:12:59;;;;;;;25.20;19.60;;;;;;;9.83;100.00;101010.35;105590;1267;98060;-81
2024/04/07 04:15:45;;;;;;;27.50;19.10;;;;;;;9.82;100.00;101018.18;105581;1263;98552;-82
2024/04/07 04:18:31;;;;;;;27.40;20.10;;;;;;;9.80;100.00;101016.91;105555;1264;98146;-81
2024/04/07 04:21:16;;;;;;;29.00;20.50;;;;;;;9.79;100.00;101012.91;105505;1268;101312;-80
2024/04/07 04:24:03;;;;;;;28.20;20.00;;;;;;;9.78;100.00;101018.42;105652;1267;99101;-82
2024/04/07 04:26:48;;;;;;;26.20;19.00;;;;;;;9.77;100.00;101023.38;105491;1263;98447;-81
2024/04/07 04:29:37;;;;;;;24.60;19.10;;;;;;;9.78;100.00;101021.63;105597;1267;98104;-82
2024/04/07 04:32:23;;;;;;;28.60;20.20;;;;;;;9.80;100.00;101020.52;105596;1263;98459;-82
2024/04/07 04:35:10;;;;;;;24.30;19.40;;;;;;;9.82;100.00;101017.25;105763;1264;102526;-82
2024/04/07 04:37:55;;;;;;;26.70;19.80;;;;;;;9.84;100.00;101012.19;105422;1263;99183;-82
2024/04/07 04:40:40;;;;;;;25.50;18.30;;;;;;;9.87;100.00;101008.34;105563;1263;98091;-82
2024/04/07 04:43:26;;;;;;;25.10;18.80;;;;;;;9.88;100.00;101006.36;105418;1263;97953;-82
2024/04/07 04:46:13;;;;;;;25.80;18.00;;;;;;;9.89;100.00;101005.89;105569;1263;97983;-83
2024/04/07 04:48:59;;;;;;;25.70;18.40;;;;;;;9.91;100.00;101004.60;105450;1263;101359;-82
2024/04/07 04:51:46;;;;;;;24.80;18.40;;;;;;;9.94;100.00;101006.56;105608;1265;99775;-82
2024/04/07 04:54:31;;;;;;;25.40;18.50;;;;;;;9.98;100.00;101000.02;105547;1267;98093;-82
2024/04/07 04:57:16;;;;;;;32.10;19.20;;;;;;;10.01;100.00;100995.77;105818;1264;97562;-82
2024/04/07 05:00:02;;;;;;;25.60;18.70;;;;;;;10.05;100.00;101001.98;105743;1263;98422;-82
2024/04/07 05:02:47;;;;;;;23.80;18.60;;;;;;;10.09;100.00;101010.80;105604;1264;102655;-82
2024/04/07 05:05:33;;;;;;;22.50;16.40;;;;;;;10.13;100.00;101014.83;105671;1267;101085;-81
2024/04/07 05:08:20;;;;;;;25.90;17.70;;;;;;;10.17;100.00;101012.44;105659;1264;97886;-81
2024/04/07 05:11:06;;;;;;;25.20;20.30;;;;;;;10.20;100.00;101015.26;105315;1267;98948;-83
2024/04/07 05:13:52;;;;;;;27.70;20.00;;;;;;;10.24;100.00;101019.48;105601;1263;97796;-82
2024/04/07 05:16:37;;;;;;;26.80;17.50;;;;;;;10.28;100.00;101022.23;105601;1263;101397;-82
2024/04/07 05:19:22;;;;;;;25.50;18.10;;;;;;;10.31;100.00;101023.41;105581;1264;99244;-82
2024/04/07 05:22:10;;;;;;;26.70;17.50;;;;;;;10.35;100.00;101026.71;105550;1267;98292;-82
2024/04/07 05:24:56;;;;;;;29.60;17.90;;;;;;;10.40;100.00;101027.71;105534;1263;98510;-81
2024/04/07 05:27:41;;;;;;;24.20;17.30;;;;;;;10.46;100.00;101029.89;105523;1263;98074;-82
2024/04/07 05:30:27;;;;;;;26.30;17.00;;;;;;;10.53;100.00;101021.09;105828;1263;101565;-82
2024/04/07 05:33:12;;;;;;;25.60;18.10;;;;;;;10.60;100.00;101019.58;105406;1263;99147;-82
2024/04/07 05:36:09;;;;;;;25.10;18.50;;;;;;;10.67;100.00;101020.00;105614;1263;99305;-83
2024/04/07 05:38:54;;;;;;;26.40;18.30;;;;;;;10.75;100.00;101015.29;105538;1264;98154;-81
2024/04/07 05:41:40;;;;;;;24.50;17.40;;;;;;;10.83;100.00;101010.71;105589;1264;98554;-82
2024/04/07 05:44:25;;;;;;;26.00;17.00;;;;;;;10.93;100.00;101010.71;105584;1267;103030;-84
2024/04/07 05:47:10;;;;;;;24.30;16.30;;;;;;;11.01;100.00;101009.02;105581;1264;100057;-80
2024/04/07 05:49:55;;;;;;;22.20;15.90;;;;;;;11.11;100.00;101002.66;105607;1267;99358;-81
2024/04/07 05:52:42;;;;;;;20.10;15.00;;;;;;;11.21;100.00;100996.40;105638;1263;98380;-82
2024/04/07 05:55:27;;;;;;;20.70;15.50;;;;;;;11.31;100.00;101004.45;106903;1264;98530;-83
2024/04/07 05:58:14;;;;;;;19.60;14.40;;;;;;;11.40;100.00;101009.54;105521;1263;101374;-82
2024/04/07 06:00:59;;;;;;;18.10;14.20;;;;;;;11.48;100.00;101009.39;105589;1263;100397;-83
2024/04/07 06:03:46;;;;;;;24.80;16.60;;;;;;;11.58;100.00;101010.17;105509;1267;98968;-81
2024/04/07 06:06:47;;;;;;;17.40;13.60;;;;;;;11.67;100.00;101013.38;105543;1266;98160;-83
2024/04/07 06:09:32;;;;;;;19.20;13.60;;;;;;;11.77;100.00;101014.69;105660;1265;98020;-81
2024/04/07 06:12:17;;;;;;;18.80;14.00;;;;;;;11.87;100.00;101007.60;105610;1263;102633;-82
2024/04/07 06:15:04;;;;;;;18.70;13.90;;;;;;;11.96;100.00;100997.66;105407;1267;100441;-81
2024/04/07 06:17:50;;;;;;;17.80;12.70;;;;;;;12.06;100.00;101001.97;105707;1265;98007;-82
2024/04/07 06:20:36;;;;;;;19.80;14.00;;;;;;;12.15;100.00;101005.52;106013;1264;98029;-82
2024/04/07 06:23:22;;;;;;;18.60;13.10;;;;;;;12.25;100.00;101003.78;105641;1264;97890;-81
2024/04/07 06:26:08;;;;;;;19.20;13.20;;;;;;;12.36;100.00;101006.64;105632;1262;101509;-82
2024/04/07 06:28:54;;;;;;;17.40;13.30;;;;;;;12.49;100.00;101004.37;105511;1264;99367;-81
2024/04/07 06:31:39;;;;;;;16.20;11.10;;;;;;;12.62;100.00;101005.78;105558;1265;98995;-82
2024/04/07 06:34:25;;;;;;;21.30;12.80;;;;;;;12.74;100.00;101007.16;105685;1267;97969;-79
2024/04/07 06:37:10;;;;;;;16.60;11.90;;;;;;;12.85;100.00;101004.26;106547;1262;98518;-86
2024/04/07 06:39:57;;;;;;;18.90;11.20;;;;;;;12.97;100.00;101000.66;106099;1267;102555;-87
2024/04/07 06:42:42;;;;;;;15.90;10.50;;;;;;;13.09;100.00;100997.66;105912;1262;99486;-86
2024/04/07 06:45:28;;;;;;;14.80;9.60;;;;;;;13.24;100.00;101001.48;105686;1262;99044;-83
2024/04/07 06:48:15;;;;;;;12.50;8.50;;;;;;;13.40;100.00;101002.01;105734;1262;98910;-88
2024/04/07 06:51:01;;;;;;;13.40;8.50;;;;;;;13.55;100.00;101004.57;105514;1262;98421;-86
2024/04/07 06:53:47;;;;;;;13.70;7.70;;;;;;;13.68;100.00;101005.36;105775;1266;102549;-85
2024/04/07 06:56:33;;;;;;;14.10;8.70;;;;;;;13.83;100.00;101008.23;105652;1262;100424;-87
2024/04/07 06:59:19;;;;;;;11.40;8.40;;;;;;;13.97;100.00;101009.27;105602;1262;99033;-85
2024/04/07 07:02:06;;;;;;;13.90;8.50;;;;;;;14.09;100.00;101004.41;105740;1265;97991;-85
2024/04/07 07:04:52;;;;;;;12.60;7.40;;;;;;;14.21;100.00;101002.48;105736;1262;98421;-83
2024/04/07 07:07:38;;;;;;;10.30;7.20;;;;;;;14.32;100.00;101003.52;105746;1266;102943;-85
2024/04/07 07:10:24;;;;;;;9.80;7.40;;;;;;;14.45;100.00;101004.23;105475;1266;100626;-84
2024/04/07 07:13:10;;;;;;;13.60;7.50;;;;;;;14.57;100.00;101005.09;105603;1262;98969;-86
2024/04/07 07:15:56;;;;;;;11.10;6.80;;;;;;;14.69;100.00;101003.77;105685;1262;97879;-85
2024/04/07 07:18:42;;;;;;;13.30;7.30;;;;;;;14.85;100.00;101004.41;105730;1262;99135;-80
2024/04/07 07:21:28;;;;;;;10.60;7.00;;;;;;;14.96;100.00;101012.74;105862;1262;102697;-79
2024/04/07 07:24:13;;;;;;;11.90;6.20;;;;;;;15.10;100.00;101021.35;105313;1262;99283;-81
2024/04/07 07:26:59;;;;;;;9.50;6.50;;;;;;;15.20;100.00;101027.05;105461;1262;98737;-80
2024/04/07 07:29:44;;;;;;;9.00;6.40;;;;;;;15.30;100.00;101033.55;105415;1262;98305;-82
2024/04/07 07:32:30;;;;;;;9.70;5.70;;;;;;;15.39;100.00;101042.31;105748;1262;97911;-83
2024/04/07 07:35:17;;;;;;;10.30;6.00;;;;;;;15.49;100.00;101045.02;106004;1266;101315;-86
2024/04/07 07:38:04;;;;;;;8.00;4.50;;;;;;;15.58;100.00;101037.63;105577;1268;100254;-85
2024/04/07 07:41:07;;;;;;;8.90;5.10;;;;;;;15.68;100.00;101030.90;105527;1264;98506;-84
2024/04/07 07:43:53;;;;;;;9.80;4.30;;;;;;;15.76;100.00;101029.61;105591;1262;98011;-84
2024/04/07 07:46:39;;;;;;;5.80;4.20;;;;;;;15.86;100.00;101033.04;105848;1267;97934;-83
2024/04/07 07:49:25;;;;;;;7.20;4.00;;;;;;;15.96;100.00;101041.11;105475;1262;103218;-83
2024/04/07 07:52:10;;;;;;;11.10;4.10;;;;;;;16.07;100.00;101044.46;105721;1266;99298;-86
2024/04/07 07:54:56;;;;;;;5.60;3.80;;;;;;;16.18;100.00;101047.63;105422;1262;98015;-82
2024/04/07 07:57:41;;;;;;;7.70;4.00;;;;;;;16.30;100.00;101048.15;105604;1262;97944;-84
2024/04/07 08:00:28;;;;;;;10.10;4.70;;;;;;;16.43;100.00;101047.09;105647;1267;98523;-82
2024/04/07 08:03:13;;;;;;;7.50;4.10;;;;;;;16.58;100.00;101045.52;105604;1267;102620;-82
2024/04/07 08:05:59;;;;;;;7.40;4.10;;;;;;;16.75;100.00;101041.52;105512;1262;100471;-81
2024/04/07 08:08:44;;;;;;;8.40;3.60;;;;;;;16.92;100.00;101042.89;105434;1262;99258;-82
2024/04/07 08:11:30;;;;;;;7.10;3.90;;;;;;;17.07;100.00;101043.46;105640;1268;97990;-83
2024/04/07 08:14:15;;;;;;;4.20;3.30;;;;;;;17.21;100.00;101044.16;105807;1267;98031;-90
2024/04/07 08:17:02;;;;;;;4.10;3.40;;;;;;;17.33;100.00;101042.27;106103;1262;102592;-87
2024/04/07 08:19:48;;;;;;;6.10;3.20;;;;;;;17.47;99.67;101043.05;106083;1262;100385;-88
2024/04/07 08:22:34;;;;;;;8.40;3.40;;;;;;;17.60;98.98;101043.63;105382;1262;99000;-86
2024/04/07 08:25:21;;;;;;;7.20;3.20;;;;;;;17.72;98.71;101048.23;105665;1267;97992;-84
2024/04/07 08:28:07;;;;;;;6.80;3.50;;;;;;;17.86;98.20;101045.90;105671;1267;98494;-87
2024/04/07 08:30:54;;;;;;;5.60;4.00;;;;;;;17.99;98.42;101040.69;105546;1262;103617;-86
2024/04/07 08:33:40;;;;;;;5.60;3.40;;;;;;;18.14;97.87;101043.35;105684;1262;99344;-86
2024/04/07 08:36:25;;;;;;;4.70;3.40;;;;;;;18.26;96.72;101041.34;105703;1265;98065;-85
2024/04/07 08:39:12;;;;;;;8.50;3.60;;;;;;;18.41;96.45;101035.25;105544;1265;97872;-86
2024/04/07 08:42:01;;;;;;;4.70;3.20;;;;;;;18.56;95.00;101029.16;105542;1265;97969;-85
2024/04/07 08:44:47;;;;;;;6.30;3.20;;;;;;;18.65;93.97;101027.16;105541;1265;103248;-85
2024/04/07 08:47:37;;;;;;;6.20;2.50;;;;;;;18.75;93.55;101024.39;105515;1265;100364;-83
2024/04/07 08:50:25;;;;;;;4.10;2.90;;;;;;;18.84;92.64;101019.95;105589;1264;97994;-84
2024/04/07 08:53:13;;;;;;;5.40;2.70;;;;;;;18.92;92.18;101017.30;105959;1267;98006;-86
2024/04/07 08:56:03;;;;;;;4.80;2.60;;;;;;;18.98;92.25;101014.05;105698;1265;97909;-85
2024/04/07 08:58:51;;;;;;;7.20;2.90;;;;;;;19.01;92.07;101012.23;106170;1267;102670;-88
2024/04/07 09:01:38;;;;;;;4.90;2.90;;;;;;;19.04;92.22;101008.60;106073;1265;100486;-88
2024/04/07 09:04:25;;;;;;;4.30;2.70;;;;;;;19.07;91.39;101003.38;105776;1264;98993;-84
2024/04/07 09:07:12;;;;;;;5.10;2.80;;;;;;;19.10;90.85;101001.28;105605;1270;98033;-86
2024/04/07 09:09:59;;;;;;;5.60;2.50;;;;;;;19.13;90.43;101002.55;105505;1269;98082;-84
2024/04/07 09:12:53;;;;;;;3.40;2.30;;;;;;;19.19;90.68;101002.50;105717;1265;102152;-86
2024/04/07 09:15:41;;;;;;;8.30;3.10;;;;;;;19.29;90.41;101001.22;105740;1265;99136;-87
2024/04/07 09:18:27;;;;;;;6.10;2.70;;;;;;;19.42;90.86;101002.42;105541;1269;99085;-87
2024/04/07 09:21:19;;;;;;;4.90;2.70;;;;;;;19.53;90.32;101002.27;105584;1264;98078;-86
2024/04/07 09:24:08;;;;;;;4.20;2.40;;;;;;;19.61;89.21;101004.15;105876;1264;98563;-87
2024/04/07 09:26:59;;;;;;;5.10;2.70;;;;;;;19.66;88.54;101000.38;105685;1267;102620;-84
2024/04/07 09:29:45;;;;;;;4.40;2.30;;;;;;;19.74;89.01;100996.79;105759;1265;109180;-83
2024/04/07 09:32:30;;;;;;;4.10;2.80;;;;;;;19.82;87.28;100991.85;105759;1263;106313;-82
2024/04/07 09:35:16;;;;;;;5.50;2.40;;;;;;;19.88;87.27;100994.89;105958;1265;97935;-82
2024/04/07 09:38:01;;;;;;;5.40;2.80;;;;;;;19.96;86.53;100996.09;105922;1267;99698;-81
2024/04/07 09:40:47;;;;;;;4.70;2.40;;;;;;;20.03;85.97;100994.73;106035;1264;101957;-82
2024/04/07 09:43:39;;;;;;;6.70;2.40;;;;;;;20.12;85.81;100993.77;105849;1263;100711;-82
2024/04/07 09:46:25;;;;;;;;;;;;;;;20.23;85.94;100994.95;105783;1266;97911;-81
2024/04/07 09:49:10;;;;;;;4.00;2.10;;;;;;;20.31;85.57;100990.39;105761;1267;98737;-81
2024/04/07 09:51:56;;;;;;;7.10;2.60;;;;;;;20.39;84.10;100989.38;105506;1262;99324;-82
2024/04/07 09:54:47;;;;;;;6.00;2.80;;;;;;;20.46;83.61;100983.25;105680;1265;101963;-81
2024/04/07 09:57:32;;;;;;;3.60;2.30;;;;;;;20.55;83.30;100980.38;105854;1267;108281;-81
2024/04/07 10:00:20;;;;;;;3.80;2.30;;;;;;;20.60;82.72;100979.56;105846;1262;98070;-81
2024/04/07 10:03:05;;;;;;;4.70;2.20;;;;;;;20.65;82.10;100973.02;105942;1267;98529;-82
2024/04/07 10:05:51;;;;;;;4.50;2.30;;;;;;;20.72;81.83;100975.34;105827;1267;98506;-81
2024/04/07 10:08:36;;;;;;;5.20;1.80;;;;;;;20.77;81.63;100975.52;105745;1267;102694;-82
2024/04/07 10:11:22;;;;;;;6.90;2.60;;;;;;;20.81;81.98;100971.56;105789;1264;99188;-81
2024/04/07 10:14:15;;;;;;;4.70;1.90;;;;;;;20.87;81.05;100966.87;105889;1264;99007;-81
2024/04/07 10:17:00;;;;;;;3.50;2.20;;;;;;;20.92;80.95;100957.27;105648;1265;98016;-82
2024/04/07 10:19:47;;;;;;;4.90;2.50;;;;;;;20.98;80.84;100947.96;105691;1270;98504;-81
2024/04/07 10:22:32;;;;;;;4.00;2.20;;;;;;;21.03;80.32;100942.64;106073;1265;102386;-81
2024/04/07 10:25:18;;;;;;;3.70;2.10;;;;;;;21.04;80.22;100933.16;105868;1267;99215;-82
2024/04/07 10:28:05;;;;;;;6.20;2.90;;;;;;;21.09;80.92;100927.81;105778;1267;98987;-82
2024/04/07 10:30:58;;;;;;;4.40;2.40;;;;;;;21.15;80.03;100923.17;105625;1263;97991;-80
2024/04/07 10:33:48;;;;;;;4.00;2.00;;;;;;;21.23;79.87;100927.33;105750;1264;98062;-81
2024/04/07 10:36:34;;;;;;;2.70;1.90;;;;;;;21.31;80.13;100925.70;105827;1263;101347;-81
2024/04/07 10:39:21;;;;;;;5.30;2.60;;;;;;;21.41;80.24;100924.01;105873;1267;99121;-82
2024/04/07 10:42:07;;;;;;;3.20;2.00;;;;;;;21.52;80.61;100921.55;105765;1262;97894;-81
2024/04/07 10:44:52;;;;;;;3.30;1.90;;;;;;;21.59;79.66;100922.90;105645;1268;97985;-81
2024/04/07 10:47:38;;;;;;;3.20;1.70;;;;;;;21.68;79.53;100926.84;105752;1264;97921;-82
2024/04/07 10:50:24;;;;;;;3.00;2.20;;;;;;;21.75;78.65;100927.49;106081;1263;102090;-82
2024/04/07 10:53:13;;;;;;;3.90;1.70;;;;;;;21.81;79.00;100927.96;105879;1267;99311;-82
2024/04/07 10:56:00;;;;;;;3.60;2.00;;;;;;;21.88;79.08;100930.27;105850;1264;97978;-82
2024/04/07 10:58:46;;;;;;;3.70;1.80;;;;;;;21.96;78.24;100934.39;106280;1265;98382;-87
2024/04/07 11:01:33;;;;;;;2.90;1.70;;;;;;;22.01;77.25;100941.30;105871;1264;98024;-86
2024/04/07 11:04:19;;;;;;;3.20;1.90;;;;;;;22.04;76.72;100947.05;106120;1264;102729;-90
2024/04/07 11:07:05;;;;;;;4.30;1.90;;;;;;;22.04;76.54;100949.52;106315;1265;99159;-90
2024/04/07 11:10:00;;;;;;;3.10;2.10;;;;;;;22.04;76.37;100947.89;106094;1267;98113;-89
2024/04/07 11:12:46;;;;;;;5.00;2.00;;;;;;;22.05;75.82;100942.61;105897;1270;97016;-88
2024/04/07 11:15:32;;;;;;;4.00;1.80;;;;;;;22.10;76.40;100933.72;106388;1267;98431;-86
2024/04/07 11:18:22;;;;;;;3.40;2.30;;;;;;;22.18;76.77;100933.38;106052;1265;101394;-86
2024/04/07 11:21:10;;;;;;;4.10;2.20;;;;;;;22.27;77.04;100930.96;106263;1264;100462;-88
2024/04/07 11:23:57;;;;;;;3.80;2.20;;;;;;;22.37;76.30;100925.17;106228;1264;97793;-90
2024/04/07 11:26:43;;;;;;;2.70;1.90;;;;;;;22.44;75.26;100921.82;105783;1263;97998;-87
2024/04/07 11:29:29;;;;;;;5.30;2.10;;;;;;;22.49;74.17;100921.33;106363;1265;97776;-87
2024/04/07 11:32:15;;;;;;;4.10;2.10;;;;;;;22.52;74.28;100920.12;105913;1263;102361;-88
2024/04/07 11:35:04;;;;;;;4.00;2.00;;;;;;;22.58;74.78;100922.63;105842;1270;100234;-88
2024/04/07 11:37:50;;;;;;;3.40;2.00;;;;;;;22.65;74.90;100918.41;106121;1265;99198;-86
2024/04/07 11:40:41;;;;;;;2.40;2.00;;;;;;;22.73;73.92;100923.07;105984;1263;97984;-87
2024/04/07 11:43:26;;;;;;;5.20;1.70;;;;;;;22.80;73.93;100916.98;106110;1267;98411;-87
2024/04/07 11:46:13;;;;;;;3.90;1.60;;;;;;;22.89;73.52;100917.45;106231;1264;103760;-89
2024/04/07 11:49:00;;;;;;;5.30;1.70;;;;;;;22.95;72.74;100916.62;106182;1264;100426;-89
2024/04/07 11:51:47;;;;;;;3.70;1.60;;;;;;;23.01;72.26;100911.04;105571;1264;98941;-88
2024/04/07 11:54:33;;;;;;;2.10;1.50;;;;;;;23.05;71.49;100905.60;106086;1264;97979;-90
2024/04/07 11:57:18;;;;;;;4.30;1.70;;;;;;;23.06;70.94;100912.55;105730;1264;98066;-87
2024/04/07 12:00:05;;;;;;;4.50;1.40;;;;;;;23.09;71.24;100906.67;106122;1265;103610;-89
2024/04/07 12:02:57;;;;;;;3.70;1.40;;;;;;;23.13;71.25;100905.62;105969;1267;100399;-85
2024/04/07 12:05:44;;;;;;;3.70;1.30;;;;;;;23.17;70.93;100902.91;106022;1268;98995;-86
2024/04/07 12:08:30;;;;;;;4.00;1.30;;;;;;;23.23;70.37;100899.84;105980;1268;98106;-87
2024/04/07 12:11:16;;;;;;;3.20;1.50;;;;;;;23.30;70.80;100892.89;105648;1267;98085;-85
2024/04/07 12:14:03;;;;;;;3.40;1.70;;;;;;;23.36;70.01;100888.48;105656;1267;102546;-86
2024/04/07 12:16:49;;;;;;;2.80;1.80;;;;;;;23.39;69.55;100887.52;105629;1263;101300;-85
2024/04/07 12:19:35;;;;;;;3.20;1.60;;;;;;;23.42;69.57;100890.60;105845;1269;99333;-87
2024/04/07 12:22:24;;;;;;;5.80;1.80;;;;;;;23.43;69.11;100892.34;105617;1270;97976;-85
2024/04/07 12:25:09;;;;;;;3.00;1.70;;;;;;;23.41;68.50;100890.64;105584;1264;97966;-85
2024/04/07 12:27:55;;;;;;;4.50;1.40;;;;;;;23.40;68.07;100888.01;105449;1264;102853;-84
2024/04/07 12:30:43;;;;;;;3.30;1.60;;;;;;;23.38;68.18;100883.69;105373;1268;100433;-84
2024/04/07 12:33:29;;;;;;;3.10;1.40;;;;;;;23.38;68.37;100879.91;105397;1264;99002;-84